createdAt,value
2023-05-10T00:01:05.910Z,101284.15
2023-05-10T00:03:35.365Z,101285.66
2023-05-10T00:06:03.932Z,101282.48
2023-05-10T00:08:35.700Z,101282.98
2023-05-10T00:11:04.592Z,101283.00
2023-05-10T00:13:34.409Z,101282.48
2023-05-10T00:16:03.409Z,101278.45
2023-05-10T00:18:30.611Z,101279.45
2023-05-10T00:20:59.350Z,101277.66
2023-05-10T00:23:31.593Z,101277.64
2023-05-10T00:33:05.818Z,101264.65
2023-05-10T00:35:33.755Z,101266.73
2023-05-10T00:38:01.411Z,101268.17
2023-05-10T00:40:29.915Z,101265.72
2023-05-10T00:43:00.510Z,101269.08
2023-05-10T00:45:28.203Z,101265.55
2023-05-10T00:47:57.264Z,101268.88
2023-05-10T00:50:27.144Z,101269.56
2023-05-10T00:52:56.184Z,101270.02
2023-05-10T00:55:23.464Z,101268.55
2023-05-10T00:57:51.494Z,101265.36
2023-05-10T01:00:19.492Z,101269.72
2023-05-10T01:02:47.519Z,101270.22
2023-05-10T01:05:14.919Z,101265.08
2023-05-10T01:07:42.378Z,101271.19
2023-05-10T01:10:11.797Z,101270.61
2023-05-10T01:12:41.122Z,101271.05
2023-05-10T01:15:28.572Z,101272.86
2023-05-10T01:17:56.011Z,101270.87
2023-05-10T01:20:24.765Z,101271.90
2023-05-10T01:23:00.956Z,101269.30
2023-05-10T01:25:38.759Z,101269.98
2023-05-10T01:29:12.061Z,101270.36
2023-05-10T01:32:10.677Z,101268.91
2023-05-10T01:35:01.949Z,101272.55
2023-05-10T01:37:57.496Z,101263.42
2023-05-10T01:40:33.240Z,101265.80
2023-05-10T01:43:05.409Z,101261.34
2023-05-10T01:45:40.798Z,101261.27
2023-05-10T01:48:11.694Z,101262.61
2023-05-10T01:51:01.187Z,101256.04
2023-05-10T01:53:30.984Z,101254.19
2023-05-10T01:55:58.865Z,101252.23
2023-05-10T01:59:06.780Z,101254.71
2023-05-10T02:01:34.938Z,101251.73
2023-05-10T02:04:02.217Z,101254.38
2023-05-10T02:06:32.009Z,101253.80
2023-05-10T02:09:00.005Z,101257.27
2023-05-10T02:11:27.335Z,101256.59
2023-05-10T02:13:56.481Z,101258.05
2023-05-10T02:16:27.542Z,101257.13
2023-05-10T02:18:55.212Z,101258.82
2023-05-10T02:21:23.474Z,101253.11
2023-05-10T02:23:50.995Z,101254.35
2023-05-10T02:26:22.780Z,101254.88
2023-05-10T02:28:50.274Z,101254.50
2023-05-10T02:31:34.532Z,101260.29
2023-05-10T02:34:03.045Z,101264.33
2023-05-10T02:36:33.007Z,101263.79
2023-05-10T02:39:00.377Z,101258.84
2023-05-10T02:41:28.178Z,101257.67
2023-05-10T02:43:58.859Z,101258.80
2023-05-10T02:46:27.277Z,101257.61
2023-05-10T02:48:54.452Z,101260.11
2023-05-10T02:51:23.029Z,101262.09
2023-05-10T02:53:50.435Z,101265.10
2023-05-10T02:56:26.278Z,101260.70
2023-05-10T02:58:54.402Z,101269.13
2023-05-10T03:01:22.282Z,101266.64
2023-05-10T03:03:51.431Z,101270.33
2023-05-10T03:06:18.624Z,101266.34
2023-05-10T03:08:45.865Z,101266.59
2023-05-10T03:11:37.152Z,101262.83
2023-05-10T03:14:28.439Z,101262.08
2023-05-10T03:17:05.894Z,101264.52
2023-05-10T03:19:59.214Z,101262.83
2023-05-10T03:22:34.251Z,101260.76
2023-05-10T03:25:26.469Z,101261.32
2023-05-10T03:27:54.285Z,101263.13
2023-05-10T03:30:27.560Z,101265.60
2023-05-10T03:32:55.565Z,101259.80
2023-05-10T03:35:22.861Z,101258.95
2023-05-10T03:37:58.911Z,101257.38
2023-05-10T03:40:41.849Z,101255.96
2023-05-10T03:43:10.151Z,101254.89
2023-05-10T03:45:44.839Z,101257.18
2023-05-10T03:48:21.555Z,101257.56
2023-05-10T03:51:30.945Z,101257.39
2023-05-10T03:54:42.133Z,101251.23
2023-05-10T03:57:29.922Z,101251.09
2023-05-10T04:00:00.987Z,101254.73
2023-05-10T04:02:28.852Z,101258.20
2023-05-10T04:05:20.882Z,101255.83
2023-05-10T04:08:12.527Z,101264.23
2023-05-10T04:10:54.936Z,101263.61
2023-05-10T04:13:24.685Z,101258.77
2023-05-10T04:15:53.121Z,101263.80
2023-05-10T04:18:27.678Z,101261.61
2023-05-10T04:21:49.474Z,101260.64
2023-05-10T04:24:41.322Z,101260.93
2023-05-10T04:27:39.313Z,101261.60
2023-05-10T04:30:14.696Z,101258.55
2023-05-10T04:32:42.651Z,101258.98
2023-05-10T04:35:32.448Z,101254.13
2023-05-10T04:38:49.389Z,101258.91
2023-05-10T04:41:18.424Z,101256.00
2023-05-10T04:43:45.728Z,101253.77
2023-05-10T04:46:13.059Z,101250.99
2023-05-10T04:48:41.000Z,101251.07
2023-05-10T04:51:08.437Z,101250.61
2023-05-10T04:53:36.388Z,101253.33
2023-05-10T04:56:05.534Z,101253.19
2023-05-10T04:58:33.475Z,101252.54
2023-05-10T05:01:09.092Z,101251.17
2023-05-10T05:03:37.831Z,101246.80
2023-05-10T05:06:10.652Z,101240.16
2023-05-10T05:08:38.567Z,101243.40
2023-05-10T05:11:22.237Z,101242.02
2023-05-10T05:13:49.406Z,101246.15
2023-05-10T05:16:16.937Z,101244.95
2023-05-10T05:19:04.141Z,101251.17
2023-05-10T05:21:52.435Z,101251.39
2023-05-10T05:25:14.585Z,101252.67
2023-05-10T05:28:21.163Z,101250.04
2023-05-10T05:30:50.824Z,101253.12
2023-05-10T05:33:43.456Z,101248.02
2023-05-10T05:36:50.982Z,101248.21
2023-05-10T05:39:56.428Z,101249.11
2023-05-10T05:42:26.524Z,101251.45
2023-05-10T05:44:58.020Z,101247.41
2023-05-10T05:47:28.573Z,101246.00
2023-05-10T05:49:57.075Z,101243.90
2023-05-10T05:52:25.737Z,101241.27
2023-05-10T05:54:54.396Z,101236.14
2023-05-10T05:57:23.102Z,101235.09
2023-05-10T05:59:52.007Z,101237.94
2023-05-10T06:02:20.272Z,101236.73
2023-05-10T06:04:50.685Z,101231.94
2023-05-10T06:07:17.774Z,101233.34
2023-05-10T06:09:44.967Z,101230.70
2023-05-10T06:12:13.996Z,101236.69
2023-05-10T06:15:01.180Z,101230.45
2023-05-10T06:17:28.771Z,101232.02
2023-05-10T06:19:56.683Z,101230.73
2023-05-10T06:22:23.937Z,101230.31
2023-05-10T06:24:51.603Z,101232.54
2023-05-10T06:27:40.126Z,101224.66
2023-05-10T06:30:12.923Z,101221.21
2023-05-10T06:32:41.019Z,101219.77
2023-05-10T06:35:10.067Z,101224.00
2023-05-10T06:37:37.339Z,101224.89
2023-05-10T06:40:10.480Z,101225.99
2023-05-10T06:42:38.051Z,101226.95
2023-05-10T06:45:10.333Z,101225.77
2023-05-10T06:47:39.263Z,101229.50
2023-05-10T06:50:10.853Z,101227.77
2023-05-10T06:52:40.322Z,101218.41
2023-05-10T06:55:10.184Z,101217.03
2023-05-10T06:57:37.362Z,101214.73
2023-05-10T07:00:25.162Z,101213.67
2023-05-10T07:03:00.094Z,101210.65
2023-05-10T07:05:30.998Z,101207.10
2023-05-10T07:07:58.808Z,101209.02
2023-05-10T07:10:27.981Z,101214.69
2023-05-10T07:13:00.074Z,101217.73
2023-05-10T07:15:28.010Z,101212.66
2023-05-10T07:18:15.704Z,101212.15
2023-05-10T07:20:45.617Z,101209.36
2023-05-10T07:23:12.779Z,101207.27
2023-05-10T07:25:40.175Z,101204.23
2023-05-10T07:28:15.916Z,101206.79
2023-05-10T07:30:43.527Z,101206.87
2023-05-10T07:33:40.649Z,101202.37
2023-05-10T07:36:09.518Z,101198.36
2023-05-10T07:38:40.834Z,101197.81
2023-05-10T07:41:10.641Z,101197.48
2023-05-10T07:43:38.700Z,101199.16
2023-05-10T07:46:12.517Z,101198.95
2023-05-10T07:48:42.142Z,101198.80
2023-05-10T07:51:11.522Z,101193.38
2023-05-10T07:53:41.160Z,101185.33
2023-05-10T07:56:33.538Z,101185.09
2023-05-10T07:59:01.466Z,101179.77
2023-05-10T08:01:36.049Z,101185.64
2023-05-10T08:04:04.747Z,101184.84
2023-05-10T08:06:33.123Z,101180.16
2023-05-10T08:09:01.000Z,101179.56
2023-05-10T08:11:29.283Z,101181.96
2023-05-10T08:14:01.704Z,101183.61
2023-05-10T08:16:37.335Z,101186.25
2023-05-10T08:19:06.739Z,101187.41
2023-05-10T08:21:36.240Z,101189.77
2023-05-10T08:24:03.791Z,101190.61
2023-05-10T08:26:45.822Z,101187.44
2023-05-10T08:29:14.455Z,101184.58
2023-05-10T08:31:57.448Z,101188.40
2023-05-10T08:34:46.455Z,101187.85
2023-05-10T08:37:35.671Z,101184.64
2023-05-10T08:40:06.106Z,101183.55
2023-05-10T08:42:38.645Z,101192.91
2023-05-10T08:45:08.635Z,101190.86
2023-05-10T08:47:38.137Z,101190.22
2023-05-10T08:50:08.317Z,101190.45
2023-05-10T08:52:37.856Z,101188.34
2023-05-10T08:55:09.307Z,101190.30
2023-05-10T08:57:42.757Z,101196.33
2023-05-10T09:00:11.656Z,101202.70
2023-05-10T09:02:56.341Z,101198.79
2023-05-10T09:05:48.016Z,101190.11
2023-05-10T09:08:32.444Z,101184.10
2023-05-10T09:11:26.893Z,101179.84
2023-05-10T09:13:54.879Z,101179.49
2023-05-10T09:16:28.021Z,101174.90
2023-05-10T09:19:36.065Z,101165.88
2023-05-10T09:22:46.331Z,101162.85
2023-05-10T09:26:24.697Z,101154.33
2023-05-10T09:28:53.255Z,101152.73
2023-05-10T09:31:55.341Z,101153.25
2023-05-10T09:34:36.012Z,101149.52
2023-05-10T09:37:05.725Z,101144.04
2023-05-10T09:39:55.063Z,101143.52
2023-05-10T09:42:32.566Z,101146.52
2023-05-10T09:45:09.906Z,101148.12
2023-05-10T09:47:38.362Z,101150.08
2023-05-10T09:50:09.099Z,101148.48
2023-05-10T09:52:56.402Z,101145.66
2023-05-10T09:55:54.534Z,101148.85
2023-05-10T09:58:24.062Z,101151.69
2023-05-10T10:00:55.246Z,101150.80
2023-05-10T10:03:29.684Z,101158.79
2023-05-10T10:05:59.019Z,101159.67
2023-05-10T10:08:35.325Z,101163.39
2023-05-10T10:11:04.707Z,101154.72
2023-05-10T10:14:01.593Z,101152.59
2023-05-10T10:16:31.603Z,101147.63
2023-05-10T10:19:40.615Z,101146.73
2023-05-10T10:22:13.388Z,101144.95
2023-05-10T10:24:42.411Z,101142.81
2023-05-10T10:27:25.756Z,101142.44
2023-05-10T10:30:38.209Z,101143.48
2023-05-10T10:33:41.799Z,101140.66
2023-05-10T10:36:38.462Z,101136.20
2023-05-10T10:39:10.196Z,101134.59
2023-05-10T10:41:59.121Z,101133.34
2023-05-10T10:44:36.681Z,101132.45
2023-05-10T10:47:41.443Z,101128.73
2023-05-10T10:50:29.282Z,101129.46
2023-05-10T10:52:56.772Z,101122.89
2023-05-10T10:55:27.079Z,101124.48
2023-05-10T10:58:01.614Z,101121.61
2023-05-10T11:00:32.363Z,101115.91
2023-05-10T11:03:15.108Z,101113.91
2023-05-10T11:06:02.197Z,101107.29
2023-05-10T11:09:13.218Z,101109.52
2023-05-10T11:12:09.504Z,101106.73
2023-05-10T11:14:37.086Z,101118.73
2023-05-10T11:17:38.341Z,101122.29
2023-05-10T11:20:34.652Z,101129.30
2023-05-10T11:23:16.609Z,101119.79
2023-05-10T11:25:45.660Z,101119.12
2023-05-10T11:28:13.701Z,101112.92
2023-05-10T11:30:41.951Z,101118.25
2023-05-10T11:33:17.900Z,101117.52
2023-05-10T11:35:47.316Z,101125.67
2023-05-10T11:38:35.024Z,101135.81
2023-05-10T11:41:04.935Z,101141.36
2023-05-10T11:43:33.020Z,101147.98
2023-05-10T11:46:05.131Z,101159.02
2023-05-10T11:49:02.185Z,101155.88
2023-05-10T11:51:29.762Z,101156.79
2023-05-10T11:53:58.514Z,101151.48
2023-05-10T11:56:56.397Z,101136.63
2023-05-10T11:59:43.297Z,101131.15
2023-05-10T12:02:11.210Z,101133.64
2023-05-10T12:04:58.890Z,101132.93
2023-05-10T12:07:49.227Z,101133.11
2023-05-10T12:10:22.090Z,101131.52
2023-05-10T12:12:50.378Z,101126.91
2023-05-10T12:15:20.026Z,101125.66
2023-05-10T12:17:47.507Z,101124.77
2023-05-10T12:20:23.887Z,101124.77
2023-05-10T12:23:28.189Z,101126.89
2023-05-10T12:26:15.612Z,101130.95
2023-05-10T12:28:47.509Z,101133.59
2023-05-10T12:31:18.586Z,101138.00
2023-05-10T12:33:47.424Z,101139.75
2023-05-10T12:36:23.594Z,101150.58
2023-05-10T12:38:53.127Z,101152.36
2023-05-10T12:41:26.491Z,101148.48
2023-05-10T12:44:03.648Z,101154.34
2023-05-10T12:46:34.146Z,101153.64
2023-05-10T12:49:22.252Z,101154.52
2023-05-10T12:52:45.795Z,101155.95
2023-05-10T12:55:22.319Z,101153.13
2023-05-10T12:58:13.887Z,101158.07
2023-05-10T13:00:46.800Z,101162.13
2023-05-10T13:03:16.197Z,101142.12
2023-05-10T13:06:10.020Z,101133.26
2023-05-10T13:09:19.311Z,101130.76
2023-05-10T13:12:09.998Z,101130.41
2023-05-10T13:14:59.272Z,101129.35
2023-05-10T13:18:11.220Z,101131.30
2023-05-10T13:20:55.214Z,101130.26
2023-05-10T13:23:25.784Z,101131.32
2023-05-10T13:26:01.014Z,101132.92
2023-05-10T13:28:32.071Z,101133.10
2023-05-10T13:31:08.246Z,101133.45
2023-05-10T13:34:14.014Z,101136.64
2023-05-10T13:37:03.684Z,101135.40
2023-05-10T13:40:00.307Z,101134.53
2023-05-10T13:42:47.658Z,101133.46
2023-05-10T13:45:17.879Z,101132.21
2023-05-10T13:47:56.312Z,101134.52
2023-05-10T13:51:12.281Z,101130.45
2023-05-10T13:54:05.197Z,101133.81
2023-05-10T13:56:54.533Z,101128.69
2023-05-10T13:59:44.356Z,101128.50
2023-05-10T14:03:03.578Z,101124.07
2023-05-10T14:05:42.910Z,101126.55
2023-05-10T14:08:43.388Z,101128.84
2023-05-10T14:11:44.823Z,101135.92
2023-05-10T14:14:35.109Z,101132.20
2023-05-10T14:17:36.672Z,101122.80
2023-05-10T14:20:12.787Z,101130.41
2023-05-10T14:22:43.468Z,101128.10
2023-05-10T14:25:11.941Z,101127.75
2023-05-10T14:27:40.296Z,101127.22
2023-05-10T14:30:11.221Z,101130.41
2023-05-10T14:32:41.215Z,101120.69
2023-05-10T14:35:14.491Z,101121.21
2023-05-10T14:37:43.867Z,101118.73
2023-05-10T14:40:12.367Z,101116.61
2023-05-10T14:42:42.530Z,101116.45
2023-05-10T14:45:15.246Z,101112.38
2023-05-10T14:48:06.278Z,101108.32
2023-05-10T14:50:39.207Z,101107.97
2023-05-10T14:53:45.353Z,101105.48
2023-05-10T14:56:14.439Z,101104.96
2023-05-10T14:58:43.402Z,101104.43
2023-05-10T15:01:13.487Z,101104.61
2023-05-10T15:04:01.524Z,101104.43
2023-05-10T15:06:33.132Z,101104.42
2023-05-10T15:09:03.547Z,101107.08
2023-05-10T15:11:35.417Z,101107.61
2023-05-10T15:14:04.467Z,101108.14
2023-05-10T15:16:35.833Z,101107.78
2023-05-10T15:19:09.102Z,101110.97
2023-05-10T15:21:45.408Z,101112.91
2023-05-10T15:24:35.210Z,101115.56
2023-05-10T15:27:08.793Z,101115.92
2023-05-10T15:29:38.053Z,101115.56
2023-05-10T15:32:08.013Z,101116.98
2023-05-10T15:34:41.282Z,101118.05
2023-05-10T15:37:10.606Z,101117.69
2023-05-10T15:40:00.967Z,101115.38
2023-05-10T15:42:38.190Z,101116.27
2023-05-10T15:45:35.242Z,101117.14
2023-05-10T15:48:21.569Z,101109.00
2023-05-10T15:51:27.513Z,101107.94
2023-05-10T15:54:06.431Z,101109.00
2023-05-10T15:56:59.252Z,101109.35
2023-05-10T15:59:30.127Z,101117.30
2023-05-10T16:02:26.740Z,101114.66
2023-05-10T16:05:20.089Z,101118.55
2023-05-10T16:08:10.677Z,101124.73
2023-05-10T16:10:43.956Z,101128.63
2023-05-10T16:13:35.785Z,101133.40
2023-05-10T16:16:04.847Z,101136.59
2023-05-10T16:18:38.710Z,101136.05
2023-05-10T16:21:12.452Z,101139.06
2023-05-10T16:23:40.413Z,101138.19
2023-05-10T16:26:23.675Z,101140.84
2023-05-10T16:28:53.280Z,101142.24
2023-05-10T16:31:25.460Z,101142.25
2023-05-10T16:33:55.139Z,101140.65
2023-05-10T16:36:24.682Z,101137.64
2023-05-10T16:38:53.529Z,101136.58
2023-05-10T16:41:22.862Z,101138.69
2023-05-10T16:43:53.651Z,101142.04
2023-05-10T16:46:25.730Z,101143.98
2023-05-10T16:48:53.957Z,101142.55
2023-05-10T16:51:21.873Z,101149.05
2023-05-10T16:53:59.325Z,101141.25
2023-05-10T16:56:39.049Z,101144.23
2023-05-10T16:59:11.403Z,101142.45
2023-05-10T17:01:42.444Z,101141.91
2023-05-10T17:04:31.788Z,101144.55
2023-05-10T17:07:01.565Z,101145.95
2023-05-10T17:09:29.468Z,101144.52
2023-05-10T17:11:59.140Z,101145.04
2023-05-10T17:14:33.175Z,101145.90
2023-05-10T17:17:06.429Z,101150.63
2023-05-10T17:19:58.994Z,101149.38
2023-05-10T17:22:47.044Z,101147.05
2023-05-10T17:25:23.913Z,101149.70
2023-05-10T17:27:57.124Z,101146.67
2023-05-10T17:30:29.607Z,101149.84
2023-05-10T17:33:07.645Z,101147.70
2023-05-10T17:35:48.117Z,101151.90
2023-05-10T17:38:19.279Z,101154.69
2023-05-10T17:40:55.740Z,101155.53
2023-05-10T17:44:04.359Z,101159.90
2023-05-10T17:46:53.490Z,101158.10
2023-05-10T17:49:25.079Z,101158.93
2023-05-10T17:51:55.442Z,101160.14
2023-05-10T17:54:27.223Z,101167.53
2023-05-10T17:57:08.558Z,101165.02
2023-05-10T17:59:48.741Z,101172.44
2023-05-10T18:02:32.279Z,101173.95
2023-05-10T18:05:02.283Z,101174.23
2023-05-10T18:07:39.604Z,101174.70
2023-05-10T18:10:48.660Z,101174.80
2023-05-10T18:13:21.145Z,101177.38
2023-05-10T18:15:57.820Z,101171.48
2023-05-10T18:18:43.446Z,101175.48
2023-05-10T18:21:15.033Z,101178.39
2023-05-10T18:23:48.014Z,101180.80
2023-05-10T18:26:17.905Z,101181.80
2023-05-10T18:29:08.628Z,101186.72
2023-05-10T18:32:20.338Z,101182.98
2023-05-10T18:35:20.932Z,101183.10
2023-05-10T18:37:49.205Z,101181.98
2023-05-10T18:40:24.938Z,101183.69
2023-05-10T18:43:09.692Z,101184.18
2023-05-10T18:45:39.599Z,101183.44
2023-05-10T18:48:10.536Z,101189.23
2023-05-10T18:50:40.035Z,101186.57
2023-05-10T18:53:09.235Z,101186.37
2023-05-10T18:56:02.264Z,101184.20
2023-05-10T18:58:46.633Z,101185.17
2023-05-10T19:01:15.511Z,101180.87
2023-05-10T19:03:50.358Z,101178.88
2023-05-10T19:06:58.932Z,101179.89
2023-05-10T19:09:46.923Z,101179.48
2023-05-10T19:13:05.064Z,101179.09
2023-05-10T19:15:33.639Z,101183.48
2023-05-10T19:18:04.517Z,101183.11
2023-05-10T19:20:56.317Z,101183.64
2023-05-10T19:23:49.291Z,101180.15
2023-05-10T19:26:21.200Z,101181.58
2023-05-10T19:29:37.734Z,101180.00
2023-05-10T19:32:48.937Z,101182.66
2023-05-10T19:35:32.299Z,101183.00
2023-05-10T19:38:01.649Z,101182.81
2023-05-10T19:41:28.890Z,101185.98
2023-05-10T19:43:57.281Z,101182.10
2023-05-10T19:46:35.091Z,101179.98
2023-05-10T19:49:05.273Z,101183.54
2023-05-10T19:51:59.253Z,101182.86
2023-05-10T19:54:33.132Z,101180.92
2023-05-10T19:57:02.615Z,101184.27
2023-05-10T19:59:50.560Z,101187.76
2023-05-10T20:02:39.832Z,101186.67
2023-05-10T20:05:08.380Z,101186.95
2023-05-10T20:07:37.276Z,101183.56
2023-05-10T20:10:05.860Z,101185.64
2023-05-10T20:12:35.123Z,101189.88
2023-05-10T20:15:05.871Z,101191.84
2023-05-10T20:17:35.303Z,101189.54
2023-05-10T20:20:04.378Z,101188.93
2023-05-10T20:22:33.932Z,101182.19
2023-05-10T20:25:01.523Z,101183.89
2023-05-10T20:27:29.855Z,101183.14
2023-05-10T20:30:13.765Z,101181.33
2023-05-10T20:32:47.564Z,101184.29
2023-05-10T20:35:23.382Z,101187.42
2023-05-10T20:37:51.525Z,101183.61
2023-05-10T20:40:19.450Z,101179.76
2023-05-10T20:42:49.212Z,101185.80
2023-05-10T20:45:22.640Z,101185.86
2023-05-10T20:48:10.637Z,101188.45
2023-05-10T20:50:39.973Z,101186.33
2023-05-10T20:53:08.873Z,101184.60
2023-05-10T20:55:37.767Z,101182.02
2023-05-10T20:58:05.661Z,101177.48
2023-05-10T21:00:34.941Z,101173.48
2023-05-10T21:03:50.739Z,101176.89
2023-05-10T21:06:18.497Z,101170.01
2023-05-10T21:08:46.156Z,101169.98
2023-05-10T21:11:36.073Z,101172.43
2023-05-10T21:14:06.365Z,101169.60
2023-05-10T21:16:35.012Z,101175.42
2023-05-10T21:19:06.649Z,101174.16
2023-05-10T21:21:34.628Z,101169.20
2023-05-10T21:24:22.914Z,101165.80
2023-05-10T21:26:52.275Z,101168.06
2023-05-10T21:29:45.928Z,101173.64
2023-05-10T21:32:16.093Z,101171.12
2023-05-10T21:34:46.898Z,101171.07
2023-05-10T21:37:35.362Z,101175.78
2023-05-10T21:40:06.933Z,101174.34
2023-05-10T21:42:35.490Z,101175.89
2023-05-10T21:45:20.750Z,101182.90
2023-05-10T21:47:49.226Z,101183.77
2023-05-10T21:50:17.667Z,101182.88
2023-05-10T21:53:05.342Z,101187.93
2023-05-10T21:55:34.102Z,101185.44
2023-05-10T21:58:04.586Z,101189.29
2023-05-10T22:00:38.911Z,101186.63
2023-05-10T22:03:15.126Z,101187.84
2023-05-10T22:06:11.067Z,101185.20
2023-05-10T22:08:39.303Z,101181.70
2023-05-10T22:11:08.454Z,101177.66
2023-05-10T22:13:58.410Z,101178.90
2023-05-10T22:16:39.582Z,101183.27
2023-05-10T22:19:07.063Z,101175.50
2023-05-10T22:21:53.840Z,101176.52
2023-05-10T22:24:26.734Z,101174.35
2023-05-10T22:26:56.325Z,101175.73
2023-05-10T22:29:46.093Z,101170.96
2023-05-10T22:32:14.161Z,101171.50
2023-05-10T22:34:42.723Z,101167.96
2023-05-10T22:37:14.845Z,101171.83
2023-05-10T22:39:43.007Z,101170.02
2023-05-10T22:42:10.168Z,101168.92
2023-05-10T22:44:38.358Z,101170.47
2023-05-10T22:47:06.327Z,101176.98
2023-05-10T22:49:42.438Z,101174.30
2023-05-10T22:52:28.022Z,101172.67
2023-05-10T22:54:56.824Z,101174.75
2023-05-10T22:57:24.219Z,101172.80
2023-05-10T22:59:51.831Z,101174.89
2023-05-10T23:02:21.092Z,101167.65
2023-05-10T23:04:57.392Z,101171.31
2023-05-10T23:07:25.282Z,101174.98
2023-05-10T23:10:02.996Z,101172.65
2023-05-10T23:12:35.429Z,101169.61
2023-05-10T23:15:05.611Z,101173.79
2023-05-10T23:17:36.974Z,101175.86
2023-05-10T23:20:06.067Z,101174.76
2023-05-10T23:22:38.584Z,101177.70
2023-05-10T23:25:09.983Z,101176.98
2023-05-10T23:27:37.263Z,101179.23
2023-05-10T23:30:21.340Z,101180.06
2023-05-10T23:33:00.521Z,101181.23
2023-05-10T23:35:31.234Z,101183.42
2023-05-10T23:38:56.473Z,101185.05
2023-05-10T23:41:26.040Z,101184.42
2023-05-10T23:44:04.426Z,101186.40
2023-05-10T23:46:34.248Z,101183.98
2023-05-10T23:49:02.841Z,101185.58
2023-05-10T23:51:32.809Z,101183.89
2023-05-10T23:54:01.613Z,101185.02
2023-05-10T23:56:50.997Z,101187.51
2023-05-10T23:59:35.863Z,101187.31
